createdAt,value
2023-02-09T00:01:18.938Z,-2.41
2023-02-09T00:03:45.468Z,-2.39
2023-02-09T00:06:14.254Z,-2.43
2023-02-09T00:08:41.162Z,-2.32
2023-02-09T00:11:15.904Z,-2.51
2023-02-09T00:13:43.609Z,-2.34
2023-02-09T00:16:10.120Z,-2.40
2023-02-09T00:18:36.681Z,-2.38
2023-02-09T00:21:07.787Z,-2.29
2023-02-09T00:23:37.220Z,-2.34
2023-02-09T00:26:07.457Z,-2.30
2023-02-09T00:28:33.883Z,-2.13
2023-02-09T00:31:00.377Z,-2.02
2023-02-09T00:33:26.842Z,-2.03
2023-02-09T00:35:53.226Z,-1.98
2023-02-09T00:38:19.604Z,-1.90
2023-02-09T00:40:47.641Z,-1.69
2023-02-09T00:43:14.011Z,-1.38
2023-02-09T00:45:40.424Z,-1.36
2023-02-09T00:48:06.835Z,-1.62
2023-02-09T00:50:33.287Z,-1.61
2023-02-09T00:52:59.663Z,-1.58
2023-02-09T00:55:26.146Z,-1.62
2023-02-09T00:57:52.548Z,-1.48
2023-02-09T01:00:20.394Z,-1.64
2023-02-09T01:02:47.187Z,-1.71
2023-02-09T01:05:13.651Z,-1.82
2023-02-09T01:07:40.050Z,-2.09
2023-02-09T01:10:06.859Z,-2.08
2023-02-09T01:12:33.314Z,-2.15
2023-02-09T01:15:01.762Z,-2.12
2023-02-09T01:17:28.757Z,-1.80
2023-02-09T01:19:55.588Z,-1.78
2023-02-09T01:22:22.276Z,-1.96
2023-02-09T01:24:48.694Z,-1.95
2023-02-09T01:27:15.075Z,-1.97
2023-02-09T01:29:41.457Z,-1.97
2023-02-09T01:32:07.891Z,-1.96
2023-02-09T01:34:34.713Z,-1.84
2023-02-09T01:37:01.101Z,-1.92
2023-02-09T01:39:27.547Z,-1.85
2023-02-09T01:41:53.997Z,-1.91
2023-02-09T01:44:20.288Z,-1.88
2023-02-09T01:46:46.705Z,-1.94
2023-02-09T01:49:18.550Z,-1.88
2023-02-09T01:51:49.328Z,-1.84
2023-02-09T01:54:21.721Z,-1.92
2023-02-09T01:56:52.400Z,-2.06
2023-02-09T01:59:19.257Z,-2.05
2023-02-09T02:01:45.881Z,-1.98
2023-02-09T02:04:12.587Z,-2.11
2023-02-09T02:06:39.736Z,-2.17
2023-02-09T02:09:12.793Z,-2.11
2023-02-09T02:11:40.407Z,-2.15
2023-02-09T02:14:06.800Z,-2.13
2023-02-09T02:16:48.746Z,-2.14
2023-02-09T02:19:32.836Z,-2.26
2023-02-09T02:22:14.351Z,-2.31
2023-02-09T02:25:05.363Z,-2.37
2023-02-09T02:27:44.565Z,-2.32
2023-02-09T02:30:35.160Z,-2.35
2023-02-09T02:33:24.141Z,-2.38
2023-02-09T02:35:54.873Z,-2.41
2023-02-09T02:38:35.210Z,-2.39
2023-02-09T02:41:14.581Z,-2.49
2023-02-09T02:43:48.593Z,-2.38
2023-02-09T02:46:30.406Z,-2.47
2023-02-09T02:49:10.619Z,-2.48
2023-02-09T02:51:40.200Z,-2.58
2023-02-09T02:54:14.775Z,-2.46
2023-02-09T02:56:47.229Z,-2.54
2023-02-09T02:59:17.859Z,-2.52
2023-02-09T03:01:51.792Z,-2.51
2023-02-09T03:04:18.334Z,-2.45
2023-02-09T03:06:44.708Z,-2.43
2023-02-09T03:09:11.550Z,-2.45
2023-02-09T03:11:42.954Z,-2.46
2023-02-09T03:14:22.593Z,-2.39
2023-02-09T03:17:06.763Z,-2.22
2023-02-09T03:19:36.811Z,-2.11
2023-02-09T03:22:08.152Z,-2.10
2023-02-09T03:24:53.647Z,-1.97
2023-02-09T03:27:25.618Z,-2.02
2023-02-09T03:29:55.140Z,-2.09
2023-02-09T03:32:22.646Z,-2.12
2023-02-09T03:34:49.267Z,-2.28
2023-02-09T03:37:15.705Z,-2.09
2023-02-09T03:39:42.093Z,-2.00
2023-02-09T03:42:09.095Z,-2.06
2023-02-09T03:44:35.478Z,-2.09
2023-02-09T03:47:07.370Z,-1.98
2023-02-09T03:49:36.445Z,-2.00
2023-02-09T03:52:03.649Z,-2.07
2023-02-09T03:54:31.234Z,-2.09
2023-02-09T03:56:58.202Z,-2.15
2023-02-09T03:59:27.609Z,-2.19
2023-02-09T04:01:55.782Z,-2.33
2023-02-09T04:04:22.314Z,-2.52
2023-02-09T04:06:49.247Z,-2.55
2023-02-09T04:09:16.154Z,-2.57
2023-02-09T04:11:42.678Z,-2.67
2023-02-09T04:14:09.808Z,-2.81
2023-02-09T04:16:37.084Z,-2.89
2023-02-09T04:19:04.391Z,-2.92
2023-02-09T04:21:30.873Z,-2.92
2023-02-09T04:23:57.321Z,-2.87
2023-02-09T04:26:24.081Z,-2.93
2023-02-09T04:28:50.471Z,-3.01
2023-02-09T04:31:17.139Z,-2.90
2023-02-09T04:33:43.672Z,-2.85
2023-02-09T04:36:10.253Z,-2.99
2023-02-09T04:38:36.812Z,-2.64
2023-02-09T04:41:04.165Z,-2.43
2023-02-09T04:43:31.069Z,-2.47
2023-02-09T04:45:57.726Z,-2.40
2023-02-09T04:48:25.566Z,-2.50
2023-02-09T04:50:52.103Z,-2.60
2023-02-09T04:53:19.572Z,-2.72
2023-02-09T04:55:47.062Z,-2.69
2023-02-09T04:58:34.745Z,-2.83
2023-02-09T05:01:01.516Z,-2.77
2023-02-09T05:03:28.278Z,-2.70
2023-02-09T05:06:01.365Z,-2.78
2023-02-09T05:08:28.266Z,-2.74
2023-02-09T05:10:54.898Z,-2.78
2023-02-09T05:13:22.175Z,-2.85
2023-02-09T05:15:49.057Z,-2.84
2023-02-09T05:18:16.235Z,-2.70
2023-02-09T05:20:43.648Z,-2.63
2023-02-09T05:23:10.734Z,-2.42
2023-02-09T05:25:37.440Z,-2.33
2023-02-09T05:28:04.244Z,-2.30
2023-02-09T05:30:31.165Z,-2.36
2023-02-09T05:32:58.041Z,-2.33
2023-02-09T05:35:24.579Z,-2.32
2023-02-09T05:37:51.185Z,-2.34
2023-02-09T05:40:17.727Z,-2.49
2023-02-09T05:42:44.155Z,-2.51
2023-02-09T05:45:10.825Z,-2.61
2023-02-09T05:47:37.254Z,-2.61
2023-02-09T05:50:04.170Z,-2.56
2023-02-09T05:52:30.572Z,-2.69
2023-02-09T05:54:56.962Z,-2.67
2023-02-09T05:57:23.391Z,-2.73
2023-02-09T05:59:49.755Z,-2.77
2023-02-09T06:02:16.250Z,-2.82
2023-02-09T06:04:43.186Z,-2.87
2023-02-09T06:07:11.899Z,-2.99
2023-02-09T06:09:38.435Z,-3.08
2023-02-09T06:12:04.969Z,-2.89
2023-02-09T06:14:31.374Z,-2.74
2023-02-09T06:16:57.791Z,-2.66
2023-02-09T06:19:24.312Z,-2.53
2023-02-09T06:21:50.693Z,-2.58
2023-02-09T06:24:17.166Z,-2.73
2023-02-09T06:26:43.609Z,-2.74
2023-02-09T06:29:10.122Z,-2.68
2023-02-09T06:31:38.071Z,-2.69
2023-02-09T06:34:05.671Z,-2.59
2023-02-09T06:36:32.227Z,-2.56
2023-02-09T06:38:58.617Z,-2.52
2023-02-09T06:41:24.993Z,-2.56
2023-02-09T06:43:51.366Z,-2.40
2023-02-09T06:46:17.877Z,-2.53
2023-02-09T06:48:44.302Z,-2.72
2023-02-09T06:51:12.897Z,-2.75
2023-02-09T06:53:40.269Z,-2.75
2023-02-09T06:56:07.385Z,-2.53
2023-02-09T06:58:33.900Z,-2.48
2023-02-09T07:01:05.505Z,-2.56
2023-02-09T07:03:32.518Z,-2.60
2023-02-09T07:06:17.277Z,-2.63
2023-02-09T07:08:44.650Z,-2.68
2023-02-09T07:11:16.722Z,-2.75
2023-02-09T07:13:43.573Z,-2.72
2023-02-09T07:16:10.988Z,-2.68
2023-02-09T07:18:37.502Z,-2.72
2023-02-09T07:21:06.503Z,-2.78
2023-02-09T07:23:33.016Z,-2.57
2023-02-09T07:26:06.943Z,-2.51
2023-02-09T07:28:33.901Z,-2.29
2023-02-09T07:31:06.343Z,-2.16
2023-02-09T07:33:34.484Z,-2.01
2023-02-09T07:36:04.705Z,-2.05
2023-02-09T07:38:31.190Z,-2.11
2023-02-09T07:41:01.637Z,-1.99
2023-02-09T07:43:28.359Z,-2.08
2023-02-09T07:46:03.086Z,-2.09
2023-02-09T07:48:29.604Z,-2.01
2023-02-09T07:50:56.196Z,-1.81
2023-02-09T07:53:22.598Z,-1.58
2023-02-09T07:55:49.030Z,-1.41
2023-02-09T07:58:18.104Z,-1.28
2023-02-09T08:00:46.335Z,-1.21
2023-02-09T08:03:14.642Z,-1.03
2023-02-09T08:06:12.353Z,-0.82
2023-02-09T08:08:38.710Z,-0.80
2023-02-09T08:11:05.469Z,-0.78
2023-02-09T08:13:35.581Z,-0.76
2023-02-09T08:16:04.850Z,-0.59
2023-02-09T08:18:41.473Z,-0.52
2023-02-09T08:21:10.679Z,-0.48
2023-02-09T08:23:40.103Z,-0.28
2023-02-09T08:26:09.835Z,-0.30
2023-02-09T08:28:43.894Z,-0.25
2023-02-09T08:31:16.007Z,-0.19
2023-02-09T08:33:42.973Z,-0.11
2023-02-09T08:36:10.166Z,-0.09
2023-02-09T08:38:36.611Z,-0.05
2023-02-09T08:41:04.802Z,-0.02
2023-02-09T08:43:31.345Z,0.16
2023-02-09T08:46:09.463Z,0.23
2023-02-09T08:48:38.284Z,0.35
2023-02-09T08:51:06.300Z,0.54
2023-02-09T08:53:32.952Z,0.49
2023-02-09T08:55:59.538Z,0.53
2023-02-09T08:58:26.777Z,0.52
2023-02-09T09:00:56.818Z,0.67
2023-02-09T09:03:29.659Z,0.60
2023-02-09T09:06:00.778Z,0.74
2023-02-09T09:08:28.058Z,0.97
2023-02-09T09:10:54.653Z,0.79
2023-02-09T09:13:21.396Z,1.03
2023-02-09T09:15:48.095Z,1.09
2023-02-09T09:18:14.717Z,1.30
2023-02-09T09:20:41.852Z,1.39
2023-02-09T09:23:09.167Z,1.42
2023-02-09T09:25:35.553Z,1.47
2023-02-09T09:28:01.996Z,1.56
2023-02-09T09:30:28.407Z,1.60
2023-02-09T09:32:55.258Z,1.54
2023-02-09T09:35:21.677Z,1.65
2023-02-09T09:37:48.509Z,1.65
2023-02-09T09:40:25.526Z,1.66
2023-02-09T09:42:55.236Z,1.70
2023-02-09T09:45:23.882Z,1.84
2023-02-09T09:47:50.405Z,1.95
2023-02-09T09:50:24.971Z,2.00
2023-02-09T09:52:58.179Z,2.14
2023-02-09T09:55:27.477Z,2.23
2023-02-09T09:57:55.287Z,2.36
2023-02-09T10:00:48.156Z,2.23
2023-02-09T10:03:20.305Z,2.32
2023-02-09T10:05:56.577Z,2.26
2023-02-09T10:08:42.358Z,2.19
2023-02-09T10:11:11.412Z,2.28
2023-02-09T10:13:44.463Z,2.36
2023-02-09T10:16:25.610Z,2.53
2023-02-09T10:18:57.259Z,2.61
2023-02-09T10:21:26.043Z,2.71
2023-02-09T10:24:01.464Z,2.71
2023-02-09T10:26:32.269Z,2.72
2023-02-09T10:29:19.883Z,2.59
2023-02-09T10:32:02.371Z,2.58
2023-02-09T10:34:40.928Z,2.81
2023-02-09T10:37:17.597Z,2.81
2023-02-09T10:39:45.272Z,2.81
2023-02-09T10:42:22.654Z,2.79
2023-02-09T10:44:51.349Z,2.70
2023-02-09T10:47:20.720Z,2.82
2023-02-09T10:50:02.357Z,3.04
2023-02-09T10:52:34.623Z,3.07
2023-02-09T10:55:02.915Z,3.03
2023-02-09T10:57:38.832Z,3.52
2023-02-09T11:00:17.261Z,3.65
2023-02-09T11:02:55.278Z,3.83
2023-02-09T11:05:21.766Z,4.07
2023-02-09T11:08:11.062Z,4.17
2023-02-09T11:10:42.220Z,4.15
2023-02-09T11:13:18.677Z,4.20
2023-02-09T11:16:06.858Z,4.16
2023-02-09T11:18:34.290Z,4.14
2023-02-09T11:21:17.878Z,4.36
2023-02-09T11:24:10.583Z,4.14
2023-02-09T11:26:36.910Z,4.26
2023-02-09T11:29:29.601Z,4.52
2023-02-09T11:32:08.516Z,4.04
2023-02-09T11:34:40.921Z,4.11
2023-02-09T11:37:45.881Z,4.47
2023-02-09T11:40:21.398Z,4.24
2023-02-09T11:43:11.313Z,4.18
2023-02-09T11:45:56.803Z,4.32
2023-02-09T11:48:29.587Z,4.24
2023-02-09T11:51:14.812Z,4.07
2023-02-09T11:53:56.519Z,4.14
2023-02-09T11:56:24.812Z,4.15
2023-02-09T11:58:57.144Z,4.38
2023-02-09T12:01:23.413Z,4.29
2023-02-09T12:04:09.702Z,4.30
2023-02-09T12:06:52.607Z,4.37
2023-02-09T12:09:37.460Z,4.65
2023-02-09T12:12:09.936Z,4.73
2023-02-09T12:14:46.441Z,4.96
2023-02-09T12:17:42.170Z,5.08
2023-02-09T12:20:38.184Z,5.08
2023-02-09T12:23:07.886Z,5.29
2023-02-09T12:25:50.943Z,5.42
2023-02-09T12:28:37.654Z,5.51
2023-02-09T12:31:13.881Z,5.47
2023-02-09T12:33:46.240Z,5.60
2023-02-09T12:36:12.677Z,5.39
2023-02-09T12:38:50.832Z,5.50
2023-02-09T12:41:28.088Z,5.50
2023-02-09T12:44:09.610Z,5.57
2023-02-09T12:46:45.223Z,5.35
2023-02-09T12:49:11.646Z,5.39
2023-02-09T12:51:54.040Z,5.34
2023-02-09T12:54:39.199Z,5.56
2023-02-09T12:57:14.742Z,5.37
2023-02-09T12:59:41.021Z,5.14
2023-02-09T13:02:07.493Z,5.31
2023-02-09T13:04:37.390Z,5.49
2023-02-09T13:07:06.467Z,5.59
2023-02-09T13:09:37.428Z,5.61
2023-02-09T13:12:15.897Z,5.53
2023-02-09T13:14:49.620Z,5.44
2023-02-09T13:17:33.307Z,5.18
2023-02-09T13:20:22.586Z,5.30
2023-02-09T13:23:07.706Z,5.63
2023-02-09T13:25:40.490Z,5.95
2023-02-09T13:28:18.522Z,5.89
2023-02-09T13:30:45.950Z,5.94
2023-02-09T13:33:20.620Z,5.62
2023-02-09T13:35:57.246Z,5.71
2023-02-09T13:38:27.877Z,5.93
2023-02-09T13:40:55.354Z,5.83
2023-02-09T13:43:35.418Z,5.69
2023-02-09T13:46:02.659Z,5.79
2023-02-09T13:48:37.782Z,5.82
2023-02-09T13:51:16.472Z,5.82
2023-02-09T13:53:59.242Z,5.67
2023-02-09T13:56:26.174Z,5.83
2023-02-09T13:58:53.373Z,5.95
2023-02-09T14:01:34.641Z,6.13
2023-02-09T14:04:18.855Z,6.24
2023-02-09T14:06:56.927Z,6.31
2023-02-09T14:09:28.228Z,6.15
2023-02-09T14:11:58.380Z,6.02
2023-02-09T14:14:54.273Z,6.30
2023-02-09T14:17:38.875Z,6.39
2023-02-09T14:20:19.948Z,6.68
2023-02-09T14:22:55.137Z,6.88
2023-02-09T14:25:26.794Z,6.43
2023-02-09T14:27:53.441Z,5.72
2023-02-09T14:30:25.657Z,5.72
2023-02-09T14:32:54.366Z,5.52
2023-02-09T14:35:23.787Z,5.44
2023-02-09T14:37:52.597Z,5.29
2023-02-09T14:40:23.409Z,5.25
2023-02-09T14:42:59.089Z,5.13
2023-02-09T14:45:25.388Z,5.17
2023-02-09T14:47:51.822Z,5.16
2023-02-09T14:50:20.833Z,5.21
2023-02-09T14:52:49.789Z,4.98
2023-02-09T14:55:19.470Z,4.99
2023-02-09T14:57:46.035Z,4.91
2023-02-09T15:00:14.872Z,4.84
2023-02-09T15:02:41.767Z,4.86
2023-02-09T15:05:08.676Z,4.93
2023-02-09T15:07:37.289Z,4.71
2023-02-09T15:10:13.465Z,4.84
2023-02-09T15:12:39.877Z,4.81
2023-02-09T15:15:06.542Z,4.73
2023-02-09T15:17:32.989Z,4.66
2023-02-09T15:19:59.422Z,4.60
2023-02-09T15:22:25.849Z,4.50
2023-02-09T15:24:54.493Z,4.57
2023-02-09T15:27:27.236Z,4.40
2023-02-09T15:29:55.613Z,4.33
2023-02-09T15:32:24.135Z,4.31
2023-02-09T15:34:51.797Z,4.11
2023-02-09T15:37:26.377Z,4.05
2023-02-09T15:39:58.980Z,4.24
2023-02-09T15:42:43.900Z,4.26
2023-02-09T15:45:40.644Z,4.20
2023-02-09T15:48:08.164Z,4.11
2023-02-09T15:50:45.709Z,3.93
2023-02-09T15:53:18.623Z,3.82
2023-02-09T15:55:45.797Z,3.80
2023-02-09T15:58:14.466Z,3.83
2023-02-09T16:00:40.885Z,3.72
2023-02-09T16:03:15.678Z,3.69
2023-02-09T16:05:42.298Z,3.55
2023-02-09T16:08:21.217Z,3.50
2023-02-09T16:10:48.479Z,3.41
2023-02-09T16:13:16.797Z,3.38
2023-02-09T16:15:43.508Z,3.40
2023-02-09T16:18:10.058Z,3.36
2023-02-09T16:20:36.684Z,3.30
2023-02-09T16:23:19.674Z,3.16
2023-02-09T16:25:48.824Z,3.09
2023-02-09T16:28:15.307Z,3.02
2023-02-09T16:30:56.240Z,3.02
2023-02-09T16:33:24.625Z,3.03
2023-02-09T16:35:55.464Z,2.95
2023-02-09T16:38:23.301Z,2.88
2023-02-09T16:40:50.183Z,2.91
2023-02-09T16:43:18.372Z,2.82
2023-02-09T16:46:00.897Z,2.75
2023-02-09T16:48:30.589Z,2.81
2023-02-09T16:50:57.305Z,2.75
2023-02-09T16:53:32.645Z,2.76
2023-02-09T16:56:01.116Z,2.85
2023-02-09T16:58:28.159Z,2.80
2023-02-09T17:00:54.585Z,2.84
2023-02-09T17:03:24.571Z,2.77
2023-02-09T17:05:53.073Z,2.84
2023-02-09T17:08:24.021Z,2.66
2023-02-09T17:10:53.114Z,2.83
2023-02-09T17:13:22.286Z,2.82
2023-02-09T17:15:52.313Z,2.69
2023-02-09T17:18:21.588Z,2.69
2023-02-09T17:20:53.125Z,2.76
2023-02-09T17:23:23.298Z,2.81
2023-02-09T17:25:51.459Z,2.63
2023-02-09T17:28:19.130Z,2.43
2023-02-09T17:30:47.598Z,2.31
2023-02-09T17:33:25.978Z,2.27
2023-02-09T17:36:23.651Z,2.26
2023-02-09T17:38:41.015Z,2.28
2023-02-09T17:41:19.370Z,2.30
2023-02-09T17:43:46.362Z,2.26
2023-02-09T17:46:15.880Z,2.43
2023-02-09T17:48:42.506Z,2.43
2023-02-09T17:51:24.057Z,2.16
2023-02-09T17:53:50.533Z,1.97
2023-02-09T17:56:17.031Z,1.89
2023-02-09T17:58:44.419Z,2.03
2023-02-09T18:01:33.043Z,1.97
2023-02-09T18:04:01.560Z,1.97
2023-02-09T18:06:34.233Z,1.85
2023-02-09T18:09:01.879Z,1.98
2023-02-09T18:11:42.099Z,2.02
2023-02-09T18:14:13.224Z,2.17
2023-02-09T18:16:41.057Z,2.26
2023-02-09T18:19:07.476Z,2.28
2023-02-09T18:21:34.292Z,2.39
2023-02-09T18:24:00.744Z,2.45
2023-02-09T18:26:27.141Z,2.50
2023-02-09T18:28:53.555Z,2.58
2023-02-09T18:31:20.253Z,2.63
2023-02-09T18:33:46.714Z,2.78
2023-02-09T18:36:16.272Z,2.73
2023-02-09T18:38:42.766Z,2.79
2023-02-09T18:41:12.786Z,2.83
2023-02-09T18:43:39.685Z,2.84
2023-02-09T18:46:06.150Z,2.90
2023-02-09T18:48:32.847Z,2.88
2023-02-09T18:50:59.294Z,2.92
2023-02-09T18:53:25.690Z,3.00
2023-02-09T18:55:52.494Z,2.96
2023-02-09T18:58:18.890Z,3.03
2023-02-09T19:00:45.363Z,2.97
2023-02-09T19:03:17.498Z,2.89
2023-02-09T19:05:43.921Z,2.97
2023-02-09T19:08:10.387Z,3.02
2023-02-09T19:10:37.057Z,2.98
2023-02-09T19:13:04.215Z,2.95
2023-02-09T19:15:32.236Z,2.95
2023-02-09T19:17:59.317Z,3.00
2023-02-09T19:20:27.413Z,2.97
2023-02-09T19:22:54.194Z,2.99
2023-02-09T19:25:22.063Z,3.05
2023-02-09T19:27:48.698Z,3.05
2023-02-09T19:30:17.939Z,3.11
2023-02-09T19:32:44.353Z,3.03
2023-02-09T19:35:11.038Z,3.02
2023-02-09T19:37:38.652Z,3.12
2023-02-09T19:40:10.709Z,3.14
2023-02-09T19:42:37.109Z,3.01
2023-02-09T19:45:03.761Z,3.08
2023-02-09T19:47:30.151Z,3.12
2023-02-09T19:49:57.923Z,3.09
2023-02-09T19:52:26.065Z,3.08
2023-02-09T19:54:52.852Z,3.05
2023-02-09T19:57:20.088Z,3.10
2023-02-09T19:59:46.489Z,3.07
2023-02-09T20:02:16.351Z,3.09
2023-02-09T20:04:45.469Z,3.08
2023-02-09T20:07:13.306Z,3.10
2023-02-09T20:09:39.849Z,3.16
2023-02-09T20:12:06.311Z,3.09
2023-02-09T20:14:33.569Z,3.02
2023-02-09T20:17:00.353Z,3.03
2023-02-09T20:19:27.015Z,2.96
2023-02-09T20:21:53.400Z,2.96
2023-02-09T20:24:19.883Z,2.88
2023-02-09T20:26:46.645Z,2.82
2023-02-09T20:29:13.576Z,2.81
2023-02-09T20:31:41.590Z,2.80
2023-02-09T20:34:09.883Z,2.84
2023-02-09T20:36:38.642Z,2.85
2023-02-09T20:39:06.998Z,2.83
2023-02-09T20:41:33.454Z,2.73
2023-02-09T20:44:18.172Z,2.67
2023-02-09T20:46:56.914Z,2.82
2023-02-09T20:49:34.266Z,2.77
2023-02-09T20:52:00.632Z,2.86
2023-02-09T20:54:27.499Z,2.84
2023-02-09T20:56:53.927Z,2.87
2023-02-09T20:59:20.292Z,2.77
2023-02-09T21:01:47.960Z,2.69
2023-02-09T21:04:15.479Z,2.66
2023-02-09T21:06:42.500Z,2.70
2023-02-09T21:09:12.812Z,2.76
2023-02-09T21:11:39.681Z,2.76
2023-02-09T21:14:06.425Z,2.79
2023-02-09T21:16:32.923Z,2.69
2023-02-09T21:18:59.857Z,2.69
2023-02-09T21:21:27.316Z,2.67
2023-02-09T21:23:54.206Z,2.67
2023-02-09T21:26:22.653Z,2.64
2023-02-09T21:28:51.316Z,2.80
2023-02-09T21:31:21.125Z,2.75
2023-02-09T21:33:47.588Z,2.81
2023-02-09T21:36:14.127Z,2.85
2023-02-09T21:38:41.655Z,2.80
2023-02-09T21:41:33.396Z,2.91
2023-02-09T21:44:00.132Z,2.94
2023-02-09T21:46:26.948Z,2.99
2023-02-09T21:48:53.715Z,2.93
2023-02-09T21:51:20.608Z,2.97
2023-02-09T21:53:47.468Z,3.03
2023-02-09T21:56:14.093Z,2.96
2023-02-09T21:58:40.834Z,2.98
2023-02-09T22:01:07.525Z,3.05
2023-02-09T22:03:33.911Z,3.01
2023-02-09T22:06:01.695Z,3.03
2023-02-09T22:08:29.080Z,3.10
2023-02-09T22:10:55.838Z,3.15
2023-02-09T22:13:22.208Z,3.15
2023-02-09T22:15:48.581Z,3.16
2023-02-09T22:18:15.003Z,3.20
2023-02-09T22:20:42.798Z,3.27
2023-02-09T22:23:09.551Z,3.24
2023-02-09T22:25:36.135Z,3.24
2023-02-09T22:28:03.477Z,3.27
2023-02-09T22:30:29.940Z,3.31
2023-02-09T22:32:56.341Z,3.30
2023-02-09T22:35:22.965Z,3.28
2023-02-09T22:37:49.342Z,3.23
2023-02-09T22:40:15.870Z,3.39
2023-02-09T22:42:42.342Z,3.42
2023-02-09T22:45:09.166Z,3.34
2023-02-09T22:47:35.615Z,3.39
2023-02-09T22:50:02.026Z,3.38
2023-02-09T22:52:29.146Z,3.34
2023-02-09T22:54:55.665Z,3.37
2023-02-09T22:57:22.034Z,3.25
2023-02-09T22:59:48.434Z,3.18
2023-02-09T23:02:14.801Z,3.16
2023-02-09T23:04:41.234Z,3.24
2023-02-09T23:07:07.612Z,3.29
2023-02-09T23:09:34.001Z,3.32
2023-02-09T23:12:00.462Z,3.38
2023-02-09T23:14:27.138Z,3.33
2023-02-09T23:16:53.667Z,3.45
2023-02-09T23:19:20.677Z,3.48
2023-02-09T23:21:49.337Z,3.52
2023-02-09T23:24:18.049Z,3.45
2023-02-09T23:26:44.444Z,3.48
2023-02-09T23:29:13.448Z,3.52
2023-02-09T23:31:40.328Z,3.52
2023-02-09T23:34:06.890Z,3.41
2023-02-09T23:36:34.431Z,3.54
2023-02-09T23:39:03.694Z,3.59
2023-02-09T23:41:30.364Z,3.62
2023-02-09T23:43:57.091Z,3.68
2023-02-09T23:46:28.311Z,3.68
2023-02-09T23:48:55.215Z,3.57
2023-02-09T23:51:30.136Z,3.54
2023-02-09T23:53:58.124Z,3.62
2023-02-09T23:56:25.237Z,3.64
2023-02-09T23:58:52.440Z,3.59
